createdAt,value
2024-05-09T00:14:37.504Z,20.94
2024-05-09T00:44:44.231Z,21.63
2024-05-09T01:14:51.270Z,21.76
2024-05-09T01:44:58.012Z,23.60
2024-05-09T02:15:05.200Z,26.61
2024-05-09T02:45:12.034Z,29.26
2024-05-09T03:15:19.218Z,33.88
2024-05-09T03:45:26.282Z,32.41
2024-05-09T04:15:33.427Z,29.73
2024-05-09T04:45:40.256Z,29.17
2024-05-09T05:15:47.671Z,28.22
2024-05-09T05:45:54.543Z,26.21
2024-05-09T06:16:01.526Z,28.23
2024-05-09T06:46:08.260Z,28.79
2024-05-09T07:16:15.291Z,32.23
2024-05-09T08:16:31.797Z,32.60
2024-05-09T08:46:39.392Z,31.19
2024-05-09T09:16:46.395Z,30.74
2024-05-09T09:46:56.210Z,31.81
2024-05-09T10:17:08.636Z,30.59
2024-05-09T10:47:16.346Z,31.65
2024-05-09T11:17:24.052Z,31.54
2024-05-09T11:47:31.058Z,32.97
2024-05-09T12:17:38.174Z,35.94
2024-05-09T12:47:45.021Z,38.48
2024-05-09T13:17:52.316Z,39.98
2024-05-09T13:47:59.844Z,40.20
2024-05-09T14:18:11.448Z,40.99
2024-05-09T14:48:20.653Z,40.18
2024-05-09T15:18:27.910Z,32.26
2024-05-09T15:48:34.856Z,24.97
2024-05-09T16:18:42.381Z,21.24
2024-05-09T16:48:49.300Z,21.25
2024-05-09T17:18:56.331Z,21.62
2024-05-09T17:49:03.156Z,21.81
2024-05-09T18:19:10.361Z,20.15
2024-05-09T18:49:17.595Z,21.14
2024-05-09T19:19:24.839Z,20.21
2024-05-09T19:49:31.823Z,20.26
2024-05-09T20:19:38.935Z,21.01
2024-05-09T20:49:45.823Z,21.93
2024-05-09T21:19:53.139Z,21.76
2024-05-09T21:49:59.849Z,20.93
2024-05-09T22:20:14.680Z,20.35
2024-05-09T22:50:27.065Z,21.06
2024-05-09T23:20:41.386Z,25.23
2024-05-09T23:50:48.103Z,28.23
